sensor_id;sensor_type;location;lat;lon;timestamp;P1;durP1;ratioP1;P2;durP2;ratioP2
34832;SDS011;55941;50.800;4.342;2023-04-29T00:00:06;117.15;;;59.63;;
34832;SDS011;55941;50.800;4.342;2023-04-29T00:02:33;126.93;;;60.20;;
34832;SDS011;55941;50.800;4.342;2023-04-29T00:04:59;121.60;;;61.40;;
34832;SDS011;55941;50.800;4.342;2023-04-29T00:07:25;116.72;;;58.35;;
34832;SDS011;55941;50.800;4.342;2023-04-29T00:09:51;129.57;;;61.92;;
34832;SDS011;55941;50.800;4.342;2023-04-29T00:12:17;118.43;;;60.45;;
34832;SDS011;55941;50.800;4.342;2023-04-29T00:14:43;113.38;;;58.50;;
34832;SDS011;55941;50.800;4.342;2023-04-29T00:17:08;113.35;;;56.88;;
34832;SDS011;55941;50.800;4.342;2023-04-29T00:19:34;102.53;;;52.45;;
34832;SDS011;55941;50.800;4.342;2023-04-29T00:22:00;97.55;;;50.60;;
34832;SDS011;55941;50.800;4.342;2023-04-29T00:24:26;93.28;;;50.20;;
34832;SDS011;55941;50.800;4.342;2023-04-29T00:26:52;100.00;;;50.15;;
34832;SDS011;55941;50.800;4.342;2023-04-29T00:29:18;87.32;;;48.88;;
34832;SDS011;55941;50.800;4.342;2023-04-29T00:31:45;74.00;;;42.60;;
34832;SDS011;55941;50.800;4.342;2023-04-29T00:34:11;74.25;;;41.28;;
34832;SDS011;55941;50.800;4.342;2023-04-29T00:36:38;79.45;;;43.08;;
34832;SDS011;55941;50.800;4.342;2023-04-29T00:39:04;81.10;;;42.60;;
34832;SDS011;55941;50.800;4.342;2023-04-29T00:41:30;75.13;;;41.80;;
34832;SDS011;55941;50.800;4.342;2023-04-29T00:43:57;77.70;;;41.70;;
34832;SDS011;55941;50.800;4.342;2023-04-29T00:46:22;79.40;;;43.85;;
34832;SDS011;55941;50.800;4.342;2023-04-29T00:48:48;78.95;;;44.63;;
34832;SDS011;55941;50.800;4.342;2023-04-29T00:51:14;86.50;;;44.67;;
34832;SDS011;55941;50.800;4.342;2023-04-29T00:53:42;82.43;;;44.70;;
34832;SDS011;55941;50.800;4.342;2023-04-29T00:56:08;75.80;;;43.47;;
34832;SDS011;55941;50.800;4.342;2023-04-29T00:58:36;75.15;;;43.17;;
34832;SDS011;55941;50.800;4.342;2023-04-29T01:01:03;79.45;;;44.28;;
34832;SDS011;55941;50.800;4.342;2023-04-29T01:03:29;86.43;;;47.60;;
34832;SDS011;55941;50.800;4.342;2023-04-29T01:05:58;88.57;;;48.53;;
34832;SDS011;55941;50.800;4.342;2023-04-29T01:11:12;88.40;;;47.90;;
34832;SDS011;55941;50.800;4.342;2023-04-29T01:13:49;89.97;;;47.95;;
34832;SDS011;55941;50.800;4.342;2023-04-29T01:16:28;76.30;;;42.22;;
34832;SDS011;55941;50.800;4.342;2023-04-29T01:19:01;81.18;;;42.45;;
34832;SDS011;55941;50.800;4.342;2023-04-29T01:21:46;73.63;;;40.53;;
34832;SDS011;55941;50.800;4.342;2023-04-29T01:24:14;79.80;;;39.40;;
34832;SDS011;55941;50.800;4.342;2023-04-29T01:26:42;67.80;;;38.70;;
34832;SDS011;55941;50.800;4.342;2023-04-29T01:31:45;81.18;;;43.28;;
34832;SDS011;55941;50.800;4.342;2023-04-29T01:34:29;79.93;;;43.72;;
34832;SDS011;55941;50.800;4.342;2023-04-29T01:45:10;88.18;;;43.63;;
34832;SDS011;55941;50.800;4.342;2023-04-29T01:47:40;88.05;;;44.58;;
34832;SDS011;55941;50.800;4.342;2023-04-29T01:50:06;84.30;;;43.70;;
34832;SDS011;55941;50.800;4.342;2023-04-29T01:52:32;68.97;;;37.08;;
34832;SDS011;55941;50.800;4.342;2023-04-29T01:54:58;65.82;;;36.15;;
34832;SDS011;55941;50.800;4.342;2023-04-29T01:57:24;67.32;;;37.90;;
34832;SDS011;55941;50.800;4.342;2023-04-29T01:59:50;73.15;;;38.45;;
34832;SDS011;55941;50.800;4.342;2023-04-29T02:02:16;68.90;;;38.05;;
34832;SDS011;55941;50.800;4.342;2023-04-29T02:04:48;74.90;;;38.90;;
34832;SDS011;55941;50.800;4.342;2023-04-29T02:07:14;69.80;;;38.03;;
34832;SDS011;55941;50.800;4.342;2023-04-29T02:09:41;61.58;;;36.33;;
34832;SDS011;55941;50.800;4.342;2023-04-29T02:12:08;75.18;;;36.40;;
34832;SDS011;55941;50.800;4.342;2023-04-29T02:14:35;69.75;;;36.75;;
34832;SDS011;55941;50.800;4.342;2023-04-29T02:17:01;66.15;;;34.90;;
34832;SDS011;55941;50.800;4.342;2023-04-29T02:19:28;67.28;;;35.22;;
34832;SDS011;55941;50.800;4.342;2023-04-29T02:21:54;64.93;;;36.30;;
34832;SDS011;55941;50.800;4.342;2023-04-29T02:24:19;65.43;;;37.17;;
34832;SDS011;55941;50.800;4.342;2023-04-29T02:26:46;73.38;;;36.67;;
34832;SDS011;55941;50.800;4.342;2023-04-29T02:29:11;76.45;;;36.50;;
34832;SDS011;55941;50.800;4.342;2023-04-29T02:31:37;60.72;;;35.15;;
34832;SDS011;55941;50.800;4.342;2023-04-29T02:34:04;68.88;;;38.60;;
34832;SDS011;55941;50.800;4.342;2023-04-29T02:36:29;67.47;;;38.95;;
34832;SDS011;55941;50.800;4.342;2023-04-29T02:38:55;84.93;;;40.15;;
34832;SDS011;55941;50.800;4.342;2023-04-29T02:41:21;67.75;;;39.45;;
34832;SDS011;55941;50.800;4.342;2023-04-29T02:43:47;75.70;;;39.33;;
34832;SDS011;55941;50.800;4.342;2023-04-29T02:46:13;70.88;;;39.25;;
34832;SDS011;55941;50.800;4.342;2023-04-29T02:48:40;70.57;;;39.50;;
34832;SDS011;55941;50.800;4.342;2023-04-29T02:51:06;69.00;;;39.55;;
34832;SDS011;55941;50.800;4.342;2023-04-29T02:53:35;68.78;;;39.00;;
34832;SDS011;55941;50.800;4.342;2023-04-29T02:56:01;71.35;;;39.78;;
34832;SDS011;55941;50.800;4.342;2023-04-29T02:58:26;65.05;;;36.25;;
34832;SDS011;55941;50.800;4.342;2023-04-29T03:00:52;64.25;;;36.92;;
34832;SDS011;55941;50.800;4.342;2023-04-29T03:03:18;55.08;;;32.45;;
34832;SDS011;55941;50.800;4.342;2023-04-29T03:05:45;50.65;;;30.77;;
34832;SDS011;55941;50.800;4.342;2023-04-29T03:08:11;47.70;;;28.67;;
34832;SDS011;55941;50.800;4.342;2023-04-29T03:10:37;53.63;;;29.23;;
34832;SDS011;55941;50.800;4.342;2023-04-29T03:13:03;44.42;;;28.02;;
34832;SDS011;55941;50.800;4.342;2023-04-29T03:15:29;45.95;;;27.00;;
34832;SDS011;55941;50.800;4.342;2023-04-29T03:17:55;47.08;;;25.15;;
34832;SDS011;55941;50.800;4.342;2023-04-29T03:20:22;36.28;;;23.70;;
34832;SDS011;55941;50.800;4.342;2023-04-29T03:22:47;32.33;;;20.45;;
34832;SDS011;55941;50.800;4.342;2023-04-29T03:25:14;34.45;;;19.73;;
34832;SDS011;55941;50.800;4.342;2023-04-29T03:27:41;33.70;;;21.05;;
34832;SDS011;55941;50.800;4.342;2023-04-29T03:30:07;31.30;;;20.17;;
34832;SDS011;55941;50.800;4.342;2023-04-29T03:32:33;31.42;;;20.08;;
34832;SDS011;55941;50.800;4.342;2023-04-29T03:34:59;33.72;;;19.70;;
34832;SDS011;55941;50.800;4.342;2023-04-29T03:37:25;37.65;;;20.00;;
34832;SDS011;55941;50.800;4.342;2023-04-29T03:39:50;33.17;;;20.55;;
34832;SDS011;55941;50.800;4.342;2023-04-29T03:42:16;43.15;;;21.55;;
34832;SDS011;55941;50.800;4.342;2023-04-29T03:44:42;36.45;;;20.55;;
34832;SDS011;55941;50.800;4.342;2023-04-29T03:47:08;56.42;;;19.98;;
34832;SDS011;55941;50.800;4.342;2023-04-29T03:49:34;36.63;;;20.85;;
34832;SDS011;55941;50.800;4.342;2023-04-29T03:51:59;32.90;;;21.20;;
34832;SDS011;55941;50.800;4.342;2023-04-29T03:54:25;33.35;;;19.45;;
34832;SDS011;55941;50.800;4.342;2023-04-29T03:56:52;35.05;;;19.00;;
34832;SDS011;55941;50.800;4.342;2023-04-29T03:59:19;28.02;;;17.23;;
34832;SDS011;55941;50.800;4.342;2023-04-29T04:01:44;31.70;;;17.00;;
34832;SDS011;55941;50.800;4.342;2023-04-29T04:04:11;25.40;;;15.38;;
34832;SDS011;55941;50.800;4.342;2023-04-29T04:06:37;24.60;;;14.70;;
34832;SDS011;55941;50.800;4.342;2023-04-29T04:09:03;26.85;;;15.75;;
34832;SDS011;55941;50.800;4.342;2023-04-29T04:11:28;36.55;;;17.40;;
34832;SDS011;55941;50.800;4.342;2023-04-29T04:13:54;36.85;;;18.85;;
34832;SDS011;55941;50.800;4.342;2023-04-29T04:16:20;28.30;;;18.55;;
34832;SDS011;55941;50.800;4.342;2023-04-29T04:18:46;35.53;;;20.83;;
34832;SDS011;55941;50.800;4.342;2023-04-29T04:21:13;34.50;;;20.15;;
34832;SDS011;55941;50.800;4.342;2023-04-29T04:23:39;41.15;;;22.10;;
34832;SDS011;55941;50.800;4.342;2023-04-29T04:26:05;35.97;;;22.27;;
34832;SDS011;55941;50.800;4.342;2023-04-29T04:28:31;35.58;;;21.95;;
34832;SDS011;55941;50.800;4.342;2023-04-29T04:30:57;38.95;;;21.88;;
34832;SDS011;55941;50.800;4.342;2023-04-29T04:33:24;33.92;;;22.50;;
34832;SDS011;55941;50.800;4.342;2023-04-29T04:35:51;41.50;;;24.15;;
34832;SDS011;55941;50.800;4.342;2023-04-29T04:38:17;46.50;;;23.92;;
34832;SDS011;55941;50.800;4.342;2023-04-29T04:40:44;44.17;;;24.80;;
34832;SDS011;55941;50.800;4.342;2023-04-29T04:43:10;42.80;;;23.52;;
34832;SDS011;55941;50.800;4.342;2023-04-29T04:45:35;43.40;;;23.33;;
34832;SDS011;55941;50.800;4.342;2023-04-29T04:48:01;46.83;;;23.70;;
34832;SDS011;55941;50.800;4.342;2023-04-29T04:50:27;46.67;;;23.90;;
34832;SDS011;55941;50.800;4.342;2023-04-29T04:52:54;51.83;;;23.92;;
34832;SDS011;55941;50.800;4.342;2023-04-29T04:55:22;43.58;;;23.10;;
34832;SDS011;55941;50.800;4.342;2023-04-29T04:57:48;41.58;;;22.02;;
34832;SDS011;55941;50.800;4.342;2023-04-29T05:00:14;42.42;;;22.65;;
34832;SDS011;55941;50.800;4.342;2023-04-29T05:02:40;45.00;;;22.42;;
34832;SDS011;55941;50.800;4.342;2023-04-29T05:05:06;46.08;;;23.30;;
34832;SDS011;55941;50.800;4.342;2023-04-29T05:07:32;40.65;;;22.58;;
34832;SDS011;55941;50.800;4.342;2023-04-29T05:10:01;42.97;;;23.63;;
34832;SDS011;55941;50.800;4.342;2023-04-29T05:12:27;48.08;;;24.70;;
34832;SDS011;55941;50.800;4.342;2023-04-29T05:14:57;54.13;;;25.70;;
34832;SDS011;55941;50.800;4.342;2023-04-29T05:17:23;46.08;;;25.35;;
34832;SDS011;55941;50.800;4.342;2023-04-29T05:19:48;51.47;;;25.98;;
34832;SDS011;55941;50.800;4.342;2023-04-29T05:22:16;42.75;;;24.10;;
34832;SDS011;55941;50.800;4.342;2023-04-29T05:24:41;38.75;;;23.27;;
34832;SDS011;55941;50.800;4.342;2023-04-29T05:27:07;39.08;;;23.05;;
34832;SDS011;55941;50.800;4.342;2023-04-29T05:29:34;38.60;;;23.73;;
34832;SDS011;55941;50.800;4.342;2023-04-29T05:32:00;41.42;;;24.52;;
34832;SDS011;55941;50.800;4.342;2023-04-29T05:34:26;47.22;;;23.95;;
34832;SDS011;55941;50.800;4.342;2023-04-29T05:36:52;38.13;;;22.95;;
34832;SDS011;55941;50.800;4.342;2023-04-29T05:39:18;42.78;;;23.10;;
34832;SDS011;55941;50.800;4.342;2023-04-29T05:41:44;46.60;;;23.30;;
34832;SDS011;55941;50.800;4.342;2023-04-29T05:44:09;35.03;;;20.65;;
34832;SDS011;55941;50.800;4.342;2023-04-29T05:46:35;44.70;;;22.48;;
34832;SDS011;55941;50.800;4.342;2023-04-29T05:49:01;41.58;;;20.80;;
34832;SDS011;55941;50.800;4.342;2023-04-29T05:51:27;44.58;;;21.67;;
34832;SDS011;55941;50.800;4.342;2023-04-29T05:53:53;41.90;;;20.92;;
34832;SDS011;55941;50.800;4.342;2023-04-29T05:56:19;39.47;;;21.08;;
34832;SDS011;55941;50.800;4.342;2023-04-29T05:58:45;36.72;;;21.60;;
34832;SDS011;55941;50.800;4.342;2023-04-29T06:01:11;34.72;;;20.63;;
34832;SDS011;55941;50.800;4.342;2023-04-29T06:03:37;37.72;;;21.08;;
34832;SDS011;55941;50.800;4.342;2023-04-29T06:06:04;41.70;;;21.33;;
34832;SDS011;55941;50.800;4.342;2023-04-29T06:08:30;44.70;;;22.50;;
34832;SDS011;55941;50.800;4.342;2023-04-29T06:10:56;44.50;;;21.92;;
34832;SDS011;55941;50.800;4.342;2023-04-29T06:13:22;41.58;;;22.23;;
34832;SDS011;55941;50.800;4.342;2023-04-29T06:15:49;42.60;;;23.08;;
34832;SDS011;55941;50.800;4.342;2023-04-29T06:18:14;39.28;;;21.58;;
34832;SDS011;55941;50.800;4.342;2023-04-29T06:20:40;43.22;;;22.20;;
34832;SDS011;55941;50.800;4.342;2023-04-29T06:23:06;41.88;;;20.65;;
34832;SDS011;55941;50.800;4.342;2023-04-29T06:25:32;40.85;;;20.10;;
34832;SDS011;55941;50.800;4.342;2023-04-29T06:27:58;34.08;;;20.05;;
34832;SDS011;55941;50.800;4.342;2023-04-29T06:30:25;32.55;;;18.75;;
34832;SDS011;55941;50.800;4.342;2023-04-29T06:32:51;35.63;;;18.35;;
34832;SDS011;55941;50.800;4.342;2023-04-29T06:35:17;43.05;;;18.15;;
34832;SDS011;55941;50.800;4.342;2023-04-29T06:37:43;31.88;;;17.63;;
34832;SDS011;55941;50.800;4.342;2023-04-29T06:40:09;38.47;;;18.77;;
34832;SDS011;55941;50.800;4.342;2023-04-29T06:42:35;36.97;;;17.75;;
34832;SDS011;55941;50.800;4.342;2023-04-29T06:45:01;31.85;;;18.17;;
34832;SDS011;55941;50.800;4.342;2023-04-29T06:47:27;39.70;;;18.45;;
34832;SDS011;55941;50.800;4.342;2023-04-29T06:49:53;30.85;;;17.52;;
34832;SDS011;55941;50.800;4.342;2023-04-29T06:52:19;36.38;;;18.35;;
34832;SDS011;55941;50.800;4.342;2023-04-29T06:54:44;36.53;;;19.10;;
34832;SDS011;55941;50.800;4.342;2023-04-29T06:57:10;32.88;;;18.65;;
34832;SDS011;55941;50.800;4.342;2023-04-29T06:59:36;32.00;;;19.02;;
34832;SDS011;55941;50.800;4.342;2023-04-29T07:02:02;41.38;;;19.83;;
34832;SDS011;55941;50.800;4.342;2023-04-29T07:04:27;35.97;;;20.55;;
34832;SDS011;55941;50.800;4.342;2023-04-29T07:06:54;39.63;;;22.65;;
34832;SDS011;55941;50.800;4.342;2023-04-29T07:09:20;41.13;;;22.35;;
34832;SDS011;55941;50.800;4.342;2023-04-29T07:11:47;45.40;;;22.70;;
34832;SDS011;55941;50.800;4.342;2023-04-29T07:14:13;39.20;;;22.50;;
34832;SDS011;55941;50.800;4.342;2023-04-29T07:16:40;38.30;;;23.30;;
34832;SDS011;55941;50.800;4.342;2023-04-29T07:19:06;44.65;;;24.73;;
34832;SDS011;55941;50.800;4.342;2023-04-29T07:21:32;41.28;;;24.77;;
34832;SDS011;55941;50.800;4.342;2023-04-29T07:23:58;39.72;;;26.17;;
34832;SDS011;55941;50.800;4.342;2023-04-29T07:26:26;38.75;;;25.42;;
34832;SDS011;55941;50.800;4.342;2023-04-29T07:28:52;48.20;;;25.15;;
34832;SDS011;55941;50.800;4.342;2023-04-29T07:31:18;49.38;;;26.63;;
34832;SDS011;55941;50.800;4.342;2023-04-29T07:33:44;43.85;;;24.88;;
34832;SDS011;55941;50.800;4.342;2023-04-29T07:36:11;46.00;;;25.52;;
34832;SDS011;55941;50.800;4.342;2023-04-29T07:38:37;43.58;;;25.45;;
34832;SDS011;55941;50.800;4.342;2023-04-29T07:41:02;35.50;;;24.40;;
34832;SDS011;55941;50.800;4.342;2023-04-29T07:43:28;44.92;;;26.25;;
34832;SDS011;55941;50.800;4.342;2023-04-29T07:45:54;48.65;;;27.38;;
34832;SDS011;55941;50.800;4.342;2023-04-29T07:48:21;46.58;;;27.77;;
34832;SDS011;55941;50.800;4.342;2023-04-29T07:50:47;50.30;;;27.48;;
34832;SDS011;55941;50.800;4.342;2023-04-29T07:53:14;46.97;;;28.60;;
34832;SDS011;55941;50.800;4.342;2023-04-29T07:55:40;48.22;;;28.67;;
34832;SDS011;55941;50.800;4.342;2023-04-29T07:58:06;47.33;;;28.90;;
34832;SDS011;55941;50.800;4.342;2023-04-29T08:00:32;41.58;;;28.85;;
34832;SDS011;55941;50.800;4.342;2023-04-29T08:02:58;55.33;;;30.88;;
34832;SDS011;55941;50.800;4.342;2023-04-29T08:05:24;51.55;;;29.85;;
34832;SDS011;55941;50.800;4.342;2023-04-29T08:07:50;53.20;;;29.60;;
34832;SDS011;55941;50.800;4.342;2023-04-29T08:10:16;50.92;;;30.52;;
34832;SDS011;55941;50.800;4.342;2023-04-29T08:12:45;47.60;;;27.48;;
34832;SDS011;55941;50.800;4.342;2023-04-29T08:15:11;45.72;;;30.13;;
34832;SDS011;55941;50.800;4.342;2023-04-29T08:17:37;48.72;;;30.80;;
34832;SDS011;55941;50.800;4.342;2023-04-29T08:20:03;47.22;;;29.88;;
34832;SDS011;55941;50.800;4.342;2023-04-29T08:22:29;49.22;;;29.52;;
34832;SDS011;55941;50.800;4.342;2023-04-29T08:24:55;42.50;;;27.70;;
34832;SDS011;55941;50.800;4.342;2023-04-29T08:27:21;43.17;;;26.77;;
34832;SDS011;55941;50.800;4.342;2023-04-29T08:29:47;38.55;;;26.50;;
34832;SDS011;55941;50.800;4.342;2023-04-29T08:32:13;47.05;;;28.17;;
34832;SDS011;55941;50.800;4.342;2023-04-29T08:34:38;51.67;;;26.63;;
34832;SDS011;55941;50.800;4.342;2023-04-29T08:37:06;44.22;;;25.50;;
34832;SDS011;55941;50.800;4.342;2023-04-29T08:39:31;38.08;;;24.45;;
34832;SDS011;55941;50.800;4.342;2023-04-29T08:41:57;40.22;;;24.95;;
34832;SDS011;55941;50.800;4.342;2023-04-29T08:44:27;48.33;;;26.63;;
34832;SDS011;55941;50.800;4.342;2023-04-29T08:46:54;44.88;;;25.15;;
34832;SDS011;55941;50.800;4.342;2023-04-29T08:49:21;40.63;;;26.20;;
34832;SDS011;55941;50.800;4.342;2023-04-29T08:51:48;40.97;;;26.00;;
34832;SDS011;55941;50.800;4.342;2023-04-29T08:54:15;45.38;;;27.35;;
34832;SDS011;55941;50.800;4.342;2023-04-29T08:56:43;43.42;;;26.02;;
34832;SDS011;55941;50.800;4.342;2023-04-29T08:59:12;46.17;;;26.27;;
34832;SDS011;55941;50.800;4.342;2023-04-29T09:01:39;42.22;;;25.50;;
34832;SDS011;55941;50.800;4.342;2023-04-29T09:04:08;46.25;;;26.17;;
34832;SDS011;55941;50.800;4.342;2023-04-29T09:07:13;41.40;;;24.52;;
34832;SDS011;55941;50.800;4.342;2023-04-29T09:09:41;39.75;;;24.65;;
34832;SDS011;55941;50.800;4.342;2023-04-29T09:12:07;42.35;;;26.88;;
34832;SDS011;55941;50.800;4.342;2023-04-29T09:14:35;36.72;;;23.73;;
34832;SDS011;55941;50.800;4.342;2023-04-29T09:17:01;41.75;;;23.60;;
34832;SDS011;55941;50.800;4.342;2023-04-29T09:19:30;38.90;;;22.88;;
34832;SDS011;55941;50.800;4.342;2023-04-29T09:21:57;34.00;;;23.33;;
34832;SDS011;55941;50.800;4.342;2023-04-29T09:24:25;33.35;;;22.25;;
34832;SDS011;55941;50.800;4.342;2023-04-29T09:26:52;37.97;;;22.75;;
34832;SDS011;55941;50.800;4.342;2023-04-29T09:29:19;40.28;;;23.13;;
34832;SDS011;55941;50.800;4.342;2023-04-29T09:31:45;41.05;;;21.95;;
34832;SDS011;55941;50.800;4.342;2023-04-29T09:34:12;33.83;;;20.85;;
34832;SDS011;55941;50.800;4.342;2023-04-29T09:36:48;37.33;;;20.65;;
34832;SDS011;55941;50.800;4.342;2023-04-29T09:39:21;31.00;;;20.63;;
34832;SDS011;55941;50.800;4.342;2023-04-29T09:44:17;33.63;;;20.38;;
34832;SDS011;55941;50.800;4.342;2023-04-29T09:47:03;37.47;;;20.67;;
34832;SDS011;55941;50.800;4.342;2023-04-29T09:49:31;36.55;;;21.80;;
34832;SDS011;55941;50.800;4.342;2023-04-29T09:52:06;35.40;;;21.13;;
34832;SDS011;55941;50.800;4.342;2023-04-29T09:54:41;35.38;;;21.25;;
34832;SDS011;55941;50.800;4.342;2023-04-29T09:57:08;34.95;;;22.00;;
34832;SDS011;55941;50.800;4.342;2023-04-29T09:59:35;42.60;;;21.20;;
34832;SDS011;55941;50.800;4.342;2023-04-29T10:02:06;33.45;;;21.15;;
34832;SDS011;55941;50.800;4.342;2023-04-29T10:04:39;41.92;;;21.48;;
34832;SDS011;55941;50.800;4.342;2023-04-29T10:07:10;30.50;;;19.65;;
34832;SDS011;55941;50.800;4.342;2023-04-29T10:12:06;33.42;;;20.27;;
34832;SDS011;55941;50.800;4.342;2023-04-29T10:14:34;30.75;;;19.35;;
34832;SDS011;55941;50.800;4.342;2023-04-29T10:17:09;34.90;;;19.73;;
34832;SDS011;55941;50.800;4.342;2023-04-29T10:19:46;35.13;;;20.15;;
34832;SDS011;55941;50.800;4.342;2023-04-29T10:22:21;30.83;;;18.33;;
34832;SDS011;55941;50.800;4.342;2023-04-29T10:24:57;38.58;;;17.75;;
34832;SDS011;55941;50.800;4.342;2023-04-29T10:27:26;26.10;;;18.42;;
34832;SDS011;55941;50.800;4.342;2023-04-29T10:29:54;27.27;;;16.45;;
34832;SDS011;55941;50.800;4.342;2023-04-29T10:32:22;36.15;;;17.20;;
34832;SDS011;55941;50.800;4.342;2023-04-29T10:34:52;30.80;;;18.42;;
34832;SDS011;55941;50.800;4.342;2023-04-29T10:37:20;32.38;;;19.05;;
34832;SDS011;55941;50.800;4.342;2023-04-29T10:39:49;30.63;;;18.05;;
34832;SDS011;55941;50.800;4.342;2023-04-29T10:42:30;32.10;;;17.27;;
34832;SDS011;55941;50.800;4.342;2023-04-29T10:45:23;28.98;;;17.27;;
34832;SDS011;55941;50.800;4.342;2023-04-29T10:52:56;21.80;;;13.10;;
34832;SDS011;55941;50.800;4.342;2023-04-29T10:55:23;19.45;;;13.10;;
34832;SDS011;55941;50.800;4.342;2023-04-29T10:57:52;27.73;;;15.93;;
34832;SDS011;55941;50.800;4.342;2023-04-29T11:00:23;26.98;;;16.30;;
34832;SDS011;55941;50.800;4.342;2023-04-29T11:02:55;32.58;;;17.05;;
34832;SDS011;55941;50.800;4.342;2023-04-29T11:05:34;24.85;;;16.23;;
34832;SDS011;55941;50.800;4.342;2023-04-29T11:08:20;33.22;;;16.38;;
34832;SDS011;55941;50.800;4.342;2023-04-29T11:10:51;22.33;;;15.45;;
34832;SDS011;55941;50.800;4.342;2023-04-29T11:13:28;21.50;;;12.77;;
34832;SDS011;55941;50.800;4.342;2023-04-29T11:16:08;23.33;;;14.32;;
34832;SDS011;55941;50.800;4.342;2023-04-29T11:18:35;20.08;;;13.45;;
34832;SDS011;55941;50.800;4.342;2023-04-29T11:21:21;18.83;;;12.90;;
34832;SDS011;55941;50.800;4.342;2023-04-29T11:23:48;20.83;;;13.35;;
34832;SDS011;55941;50.800;4.342;2023-04-29T11:26:18;23.95;;;14.25;;
34832;SDS011;55941;50.800;4.342;2023-04-29T11:28:44;21.27;;;13.85;;
34832;SDS011;55941;50.800;4.342;2023-04-29T11:31:10;26.52;;;13.90;;
34832;SDS011;55941;50.800;4.342;2023-04-29T11:33:36;25.08;;;13.15;;
34832;SDS011;55941;50.800;4.342;2023-04-29T11:36:02;24.20;;;13.07;;
34832;SDS011;55941;50.800;4.342;2023-04-29T11:38:28;18.63;;;12.55;;
34832;SDS011;55941;50.800;4.342;2023-04-29T11:40:55;21.05;;;11.70;;
34832;SDS011;55941;50.800;4.342;2023-04-29T11:43:22;17.02;;;13.07;;
34832;SDS011;55941;50.800;4.342;2023-04-29T11:45:50;20.58;;;13.15;;
34832;SDS011;55941;50.800;4.342;2023-04-29T11:48:19;20.23;;;13.35;;
34832;SDS011;55941;50.800;4.342;2023-04-29T11:50:49;22.52;;;12.23;;
34832;SDS011;55941;50.800;4.342;2023-04-29T11:53:20;22.65;;;12.52;;
34832;SDS011;55941;50.800;4.342;2023-04-29T11:55:49;18.48;;;11.13;;
34832;SDS011;55941;50.800;4.342;2023-04-29T11:58:17;19.85;;;11.05;;
34832;SDS011;55941;50.800;4.342;2023-04-29T12:00:46;21.92;;;11.07;;
34832;SDS011;55941;50.800;4.342;2023-04-29T12:03:12;21.17;;;12.13;;
34832;SDS011;55941;50.800;4.342;2023-04-29T12:05:39;18.33;;;11.20;;
34832;SDS011;55941;50.800;4.342;2023-04-29T12:08:08;21.20;;;11.13;;
34832;SDS011;55941;50.800;4.342;2023-04-29T12:10:35;18.67;;;10.48;;
34832;SDS011;55941;50.800;4.342;2023-04-29T12:13:02;15.75;;;11.20;;
34832;SDS011;55941;50.800;4.342;2023-04-29T12:15:29;17.77;;;11.25;;
34832;SDS011;55941;50.800;4.342;2023-04-29T12:17:55;18.20;;;11.27;;
34832;SDS011;55941;50.800;4.342;2023-04-29T12:20:21;16.77;;;11.73;;
34832;SDS011;55941;50.800;4.342;2023-04-29T12:22:47;24.63;;;11.73;;
34832;SDS011;55941;50.800;4.342;2023-04-29T12:25:14;16.17;;;11.68;;
34832;SDS011;55941;50.800;4.342;2023-04-29T12:27:40;21.70;;;13.50;;
34832;SDS011;55941;50.800;4.342;2023-04-29T12:30:07;25.33;;;14.43;;
34832;SDS011;55941;50.800;4.342;2023-04-29T12:32:34;21.95;;;13.85;;
34832;SDS011;55941;50.800;4.342;2023-04-29T12:35:00;22.75;;;13.30;;
34832;SDS011;55941;50.800;4.342;2023-04-29T12:37:26;22.23;;;13.50;;
34832;SDS011;55941;50.800;4.342;2023-04-29T12:39:54;19.50;;;13.48;;
34832;SDS011;55941;50.800;4.342;2023-04-29T12:42:21;23.27;;;12.70;;
34832;SDS011;55941;50.800;4.342;2023-04-29T12:44:48;22.02;;;11.82;;
34832;SDS011;55941;50.800;4.342;2023-04-29T12:47:14;24.27;;;12.75;;
34832;SDS011;55941;50.800;4.342;2023-04-29T12:49:41;21.23;;;10.98;;
34832;SDS011;55941;50.800;4.342;2023-04-29T12:52:09;21.50;;;12.18;;
34832;SDS011;55941;50.800;4.342;2023-04-29T12:54:36;16.95;;;10.65;;
34832;SDS011;55941;50.800;4.342;2023-04-29T12:57:05;19.45;;;11.55;;
34832;SDS011;55941;50.800;4.342;2023-04-29T12:59:31;21.42;;;12.23;;
34832;SDS011;55941;50.800;4.342;2023-04-29T13:01:56;21.60;;;11.52;;
34832;SDS011;55941;50.800;4.342;2023-04-29T13:04:22;17.45;;;11.32;;
34832;SDS011;55941;50.800;4.342;2023-04-29T13:06:48;16.15;;;10.52;;
34832;SDS011;55941;50.800;4.342;2023-04-29T13:09:18;19.35;;;10.60;;
34832;SDS011;55941;50.800;4.342;2023-04-29T13:11:44;19.38;;;10.00;;
34832;SDS011;55941;50.800;4.342;2023-04-29T13:14:10;20.75;;;9.88;;
34832;SDS011;55941;50.800;4.342;2023-04-29T13:16:36;14.05;;;9.55;;
34832;SDS011;55941;50.800;4.342;2023-04-29T13:19:02;22.05;;;10.25;;
34832;SDS011;55941;50.800;4.342;2023-04-29T13:21:28;15.55;;;9.48;;
34832;SDS011;55941;50.800;4.342;2023-04-29T13:23:56;15.75;;;9.80;;
34832;SDS011;55941;50.800;4.342;2023-04-29T13:26:21;16.20;;;9.82;;
34832;SDS011;55941;50.800;4.342;2023-04-29T13:28:49;19.35;;;9.15;;
34832;SDS011;55941;50.800;4.342;2023-04-29T13:31:16;16.38;;;8.63;;
34832;SDS011;55941;50.800;4.342;2023-04-29T13:33:41;15.73;;;8.45;;
34832;SDS011;55941;50.800;4.342;2023-04-29T13:36:08;14.00;;;9.18;;
34832;SDS011;55941;50.800;4.342;2023-04-29T13:38:35;14.50;;;8.80;;
34832;SDS011;55941;50.800;4.342;2023-04-29T13:41:00;17.48;;;9.63;;
34832;SDS011;55941;50.800;4.342;2023-04-29T13:43:26;14.52;;;9.07;;
34832;SDS011;55941;50.800;4.342;2023-04-29T13:45:52;14.70;;;9.15;;
34832;SDS011;55941;50.800;4.342;2023-04-29T13:48:18;19.08;;;9.48;;
34832;SDS011;55941;50.800;4.342;2023-04-29T13:50:46;13.35;;;9.07;;
34832;SDS011;55941;50.800;4.342;2023-04-29T13:53:12;11.75;;;8.43;;
34832;SDS011;55941;50.800;4.342;2023-04-29T13:55:38;13.95;;;8.50;;
34832;SDS011;55941;50.800;4.342;2023-04-29T13:58:03;14.60;;;7.60;;
34832;SDS011;55941;50.800;4.342;2023-04-29T14:00:29;11.95;;;7.88;;
34832;SDS011;55941;50.800;4.342;2023-04-29T14:02:55;12.13;;;7.90;;
34832;SDS011;55941;50.800;4.342;2023-04-29T14:05:21;12.93;;;7.03;;
34832;SDS011;55941;50.800;4.342;2023-04-29T14:07:47;17.17;;;10.15;;
34832;SDS011;55941;50.800;4.342;2023-04-29T14:10:13;17.00;;;10.48;;
34832;SDS011;55941;50.800;4.342;2023-04-29T14:12:39;20.52;;;10.25;;
34832;SDS011;55941;50.800;4.342;2023-04-29T14:15:05;14.25;;;10.32;;
34832;SDS011;55941;50.800;4.342;2023-04-29T14:17:31;19.95;;;11.18;;
34832;SDS011;55941;50.800;4.342;2023-04-29T14:19:57;20.83;;;12.10;;
34832;SDS011;55941;50.800;4.342;2023-04-29T14:22:23;24.48;;;11.55;;
34832;SDS011;55941;50.800;4.342;2023-04-29T14:24:49;16.35;;;10.63;;
34832;SDS011;55941;50.800;4.342;2023-04-29T14:27:15;16.30;;;10.23;;
34832;SDS011;55941;50.800;4.342;2023-04-29T14:29:41;17.15;;;10.63;;
34832;SDS011;55941;50.800;4.342;2023-04-29T14:32:06;16.30;;;11.20;;
34832;SDS011;55941;50.800;4.342;2023-04-29T14:34:32;15.65;;;10.50;;
34832;SDS011;55941;50.800;4.342;2023-04-29T14:36:58;22.95;;;10.45;;
34832;SDS011;55941;50.800;4.342;2023-04-29T14:39:24;15.35;;;10.68;;
34832;SDS011;55941;50.800;4.342;2023-04-29T14:41:51;19.27;;;10.13;;
34832;SDS011;55941;50.800;4.342;2023-04-29T14:44:17;16.67;;;10.23;;